Terminal Aerodrome Forecast
Issued by NWS

Home | Current Version | Previous Version | Text Only | Print | Product List | Glossary On
Versions: 1 2 3 4 5 6 7 8 9 10 11 12 13 14 15 16 17 18
000
FTUS42 KTBW 011124
TAFPIE
TAF
KPIE 011124Z 0112/0212 18008KT P6SM VCSH SCT020 BKN080
      TEMPO 0112/0114 VRB12G20KT 4SM +SHRA BKN025
     FM011400 21012KT P6SM VCSH SCT025 OVC100
     FM011700 22017G26KT P6SM VCTS SCT035CB BKN050 OVC100
     FM020100 20010KT P6SM -RA VCTS SCT025CB BKN040
     FM020600 20007KT P6SM VCTS SCT025CB SCT040 OVC100=

USA.gov is the U.S. government's official web portal to all federal, state and local government web resources and services.